Time;durP1;ratioP1;P1;durP2;ratioP2;P2;SDS_P1;SDS_P2;PMS_P1;PMS_P2;Temp;Humidity;BMP_temperature;BMP_pressure;BME280_temperature;BME280_humidity;BME280_pressure;Samples;Min_cycle;Max_cycle;Signal;HPM_P1;HPM_P2
2021/04/09 00:00:29;;;;;;;0.60;0.57;;;;;;;4.48;63.42;101391.50;5033180;28;20455;-70
2021/04/09 00:02:57;;;;;;;1.50;1.07;;;;;;;4.45;63.56;101384.75;5031823;28;20487;-68
2021/04/09 00:05:23;;;;;;;1.10;0.57;;;;;;;4.41;64.95;101385.47;5032874;28;20862;-68
2021/04/09 00:07:49;;;;;;;0.50;0.40;;;;;;;4.40;64.18;101389.22;5033346;28;20451;-68
2021/04/09 00:10:17;;;;;;;0.80;0.40;;;;;;;4.35;65.70;101387.25;5033176;28;20454;-69
2021/04/09 00:12:44;;;;;;;0.40;0.30;;;;;;;4.39;64.25;101384.91;5033399;28;20494;-68
2021/04/09 00:15:11;;;;;;;0.40;0.30;;;;;;;4.37;64.03;101382.44;5033262;28;20493;-69
2021/04/09 00:17:37;;;;;;;0.63;0.63;;;;;;;4.37;64.68;101381.63;5032951;28;20443;-67
2021/04/09 00:20:05;;;;;;;0.50;0.40;;;;;;;4.35;63.92;101381.06;5033156;28;20439;-69
2021/04/09 00:22:31;;;;;;;0.50;0.40;;;;;;;4.36;63.79;101380.00;5032604;28;20458;-69
2021/04/09 00:24:57;;;;;;;0.50;0.50;;;;;;;4.35;63.64;101373.03;5031853;28;21020;-70
2021/04/09 00:27:23;;;;;;;0.50;0.50;;;;;;;4.28;63.80;101365.91;5035907;28;20453;-69
2021/04/09 00:29:50;;;;;;;1.03;0.93;;;;;;;4.24;64.79;101370.13;5036780;28;20469;-69
2021/04/09 00:32:15;;;;;;;0.40;0.40;;;;;;;4.18;64.74;101360.38;5036178;28;20486;-69
2021/04/09 00:34:41;;;;;;;0.40;0.30;;;;;;;4.08;64.43;101359.38;5036811;28;20443;-69
2021/04/09 00:37:07;;;;;;;0.70;0.40;;;;;;;4.01;65.57;101359.50;5036512;28;20454;-68
2021/04/09 00:39:33;;;;;;;0.60;0.50;;;;;;;3.97;66.42;101352.97;5036830;28;20478;-68
2021/04/09 00:41:59;;;;;;;0.50;0.50;;;;;;;3.95;66.70;101353.22;5036649;28;20439;-68
2021/04/09 00:44:25;;;;;;;0.50;0.40;;;;;;;3.94;66.99;101346.25;5036396;28;20469;-68
2021/04/09 00:46:52;;;;;;;0.93;0.93;;;;;;;3.92;66.83;101342.16;5036410;28;20450;-69
2021/04/09 00:49:18;;;;;;;0.40;0.30;;;;;;;3.91;68.00;101333.31;5036228;28;20439;-69
2021/04/09 00:51:44;;;;;;;0.40;0.40;;;;;;;3.89;67.51;101323.88;5036353;28;20525;-68
2021/04/09 00:54:10;;;;;;;1.33;1.23;;;;;;;3.89;67.40;101323.88;5035274;28;21017;-68
2021/04/09 00:59:05;;;;;;;0.40;0.30;;;;;;;3.85;68.29;101317.38;5072822;28;20457;-68
2021/04/09 01:01:32;;;;;;;0.40;0.30;;;;;;;3.83;67.87;101308.75;5075418;28;20883;-68
2021/04/09 01:04:00;;;;;;;0.40;0.40;;;;;;;3.83;68.66;101309.56;5075860;28;20630;-68
2021/04/09 01:06:26;;;;;;;0.67;0.53;;;;;;;3.78;69.56;101299.56;5074865;28;20511;-69
2021/04/09 01:08:52;;;;;;;0.50;0.50;;;;;;;3.77;69.13;101297.13;5075773;28;20467;-69
2021/04/09 01:11:18;;;;;;;0.40;0.30;;;;;;;3.74;68.54;101295.75;5075359;28;20992;-69
2021/04/09 01:13:45;;;;;;;0.50;0.40;;;;;;;3.75;69.28;101294.69;5074240;28;21047;-69
2021/04/09 01:16:17;;;;;;;0.50;0.50;;;;;;;3.75;68.20;101289.31;5074831;28;20433;-69
2021/04/09 01:18:49;;;;;;;0.40;0.30;;;;;;;3.71;69.13;101280.13;5074619;28;20608;-69
2021/04/09 01:21:26;;;;;;;0.40;0.30;;;;;;;3.70;68.50;101281.19;5075835;28;20425;-69
2021/04/09 01:24:09;;;;;;;1.67;0.60;;;;;;;3.67;68.88;101278.16;5079335;28;20482;-69
2021/04/09 01:27:00;;;;;;;0.40;0.30;;;;;;;3.65;69.10;101270.38;5077232;28;20417;-68
2021/04/09 01:29:43;;;;;;;0.87;0.87;;;;;;;3.60;69.61;101262.25;5075624;28;20453;-69
2021/04/09 01:32:12;;;;;;;1.10;0.73;;;;;;;3.55;69.33;101262.16;5075192;28;20469;-69
2021/04/09 01:34:43;;;;;;;0.60;0.50;;;;;;;3.53;69.52;101264.22;5075047;28;21015;-70
2021/04/09 01:37:13;;;;;;;0.40;0.30;;;;;;;3.50;70.91;101254.81;5075141;28;20488;-70
2021/04/09 01:39:42;;;;;;;0.50;0.40;;;;;;;3.51;69.96;101251.09;5075276;28;20449;-70
2021/04/09 01:42:11;;;;;;;1.07;0.97;;;;;;;3.46;70.01;101240.28;5075153;28;20437;-70
2021/04/09 01:44:42;;;;;;;0.50;0.43;;;;;;;3.43;70.06;101242.63;5075161;28;20449;-71
2021/04/09 01:47:08;;;;;;;0.60;0.60;;;;;;;3.48;70.15;101248.06;5074900;28;20465;-69
2021/04/09 01:49:37;;;;;;;1.17;1.07;;;;;;;3.47;69.45;101235.75;5074983;28;20479;-70
2021/04/09 01:52:06;;;;;;;0.50;0.40;;;;;;;3.40;69.88;101225.16;5074540;28;21066;-70
2021/04/09 01:54:34;;;;;;;0.40;0.40;;;;;;;3.40;70.86;101225.16;5074887;28;20452;-69
2021/04/09 01:57:01;;;;;;;0.50;0.40;;;;;;;3.42;69.95;101219.56;5074559;28;20506;-70
2021/04/09 01:59:29;;;;;;;0.97;0.97;;;;;;;3.35;70.13;101208.16;5074975;28;20429;-69
2021/04/09 02:01:56;;;;;;;0.60;0.50;;;;;;;3.42;69.95;101211.53;5074152;28;20504;-70
2021/04/09 02:04:24;;;;;;;0.40;0.30;;;;;;;3.39;69.18;101210.13;5074737;28;20495;-69
2021/04/09 02:06:52;;;;;;;0.67;0.67;;;;;;;3.36;70.54;101207.13;5074659;28;20445;-69
2021/04/09 02:09:18;;;;;;;0.50;0.30;;;;;;;3.39;71.09;101209.31;5074426;28;20434;-68
2021/04/09 02:11:44;;;;;;;0.83;0.70;;;;;;;3.38;69.10;101200.47;5074348;28;20445;-69
2021/04/09 02:14:12;;;;;;;0.40;0.30;;;;;;;3.34;68.77;101193.97;5074106;28;21008;-69
2021/04/09 02:16:40;;;;;;;0.40;0.30;;;;;;;3.35;70.64;101187.56;5073157;28;20432;-69
2021/04/09 02:19:06;;;;;;;1.47;1.37;;;;;;;3.37;69.12;101196.19;5074620;28;20441;-69
2021/04/09 02:21:33;;;;;;;0.47;0.40;;;;;;;3.33;69.23;101188.88;5074511;28;20437;-69
2021/04/09 02:24:00;;;;;;;0.40;0.30;;;;;;;3.29;69.94;101193.88;5074310;28;20446;-68
2021/04/09 02:26:26;;;;;;;0.67;0.67;;;;;;;3.32;70.13;101179.19;5074254;28;20444;-69
2021/04/09 02:28:53;;;;;;;0.67;0.57;;;;;;;3.28;70.11;101176.19;5074209;28;20469;-69
2021/04/09 02:31:19;;;;;;;1.13;1.07;;;;;;;3.26;70.58;101181.78;5074297;28;20446;-69
2021/04/09 02:33:45;;;;;;;1.07;0.50;;;;;;;3.25;69.95;101182.81;5074196;28;20481;-70
2021/04/09 02:36:13;;;;;;;0.60;0.40;;;;;;;3.23;70.82;101176.06;5074103;28;20831;-70
2021/04/09 02:38:42;;;;;;;0.67;0.67;;;;;;;3.21;70.44;101176.31;5074097;28;20469;-69
2021/04/09 02:41:11;;;;;;;0.40;0.30;;;;;;;3.20;71.32;101165.88;5073654;28;20801;-70
2021/04/09 02:43:37;;;;;;;0.50;0.43;;;;;;;3.20;70.74;101171.22;5074060;28;20433;-70
2021/04/09 02:46:06;;;;;;;1.40;1.30;;;;;;;3.23;70.41;101168.88;5074026;28;20492;-69
2021/04/09 02:48:37;;;;;;;0.70;0.50;;;;;;;3.18;69.90;101163.41;5073266;28;20458;-70
2021/04/09 02:51:08;;;;;;;0.40;0.30;;;;;;;3.19;70.13;101161.56;5074030;28;20433;-69
2021/04/09 02:53:38;;;;;;;0.83;0.83;;;;;;;3.20;70.70;101164.00;5073861;28;20465;-70
2021/04/09 02:56:06;;;;;;;0.40;0.30;;;;;;;3.11;70.24;101153.91;5073687;28;20424;-71
2021/04/09 02:58:35;;;;;;;1.10;1.07;;;;;;;3.07;70.31;101160.78;5073562;28;21035;-69
2021/04/09 03:01:02;;;;;;;0.40;0.30;;;;;;;3.08;70.86;101141.78;5073219;28;20449;-70
2021/04/09 03:03:29;;;;;;;0.80;0.50;;;;;;;3.07;71.13;101142.84;5070677;28;20461;-70
2021/04/09 03:05:55;;;;;;;1.53;1.43;;;;;;;3.07;71.53;101142.84;5063085;28;20454;-70
2021/04/09 03:08:21;;;;;;;1.03;1.03;;;;;;;3.08;71.24;101131.09;5056872;28;20526;-69
2021/04/09 03:10:48;;;;;;;0.40;0.30;;;;;;;3.07;70.93;101128.66;5052939;28;20980;-70
2021/04/09 03:13:14;;;;;;;0.50;0.30;;;;;;;3.07;70.63;101132.16;5063442;28;20489;-70
2021/04/09 03:15:44;;;;;;;0.40;0.30;;;;;;;3.02;71.05;101124.84;5054261;28;20935;-70
2021/04/09 03:18:11;;;;;;;0.40;0.30;;;;;;;3.02;70.63;101121.34;5053377;28;20465;-70
2021/04/09 03:20:37;;;;;;;0.43;0.40;;;;;;;2.97;70.98;101119.38;5053319;28;20457;-69
2021/04/09 03:23:04;;;;;;;0.40;0.30;;;;;;;2.97;71.10;101122.06;5053390;28;20435;-70
2021/04/09 03:25:30;;;;;;;0.50;0.47;;;;;;;2.99;71.23;101111.91;5058291;28;20447;-69
2021/04/09 03:27:56;;;;;;;0.40;0.30;;;;;;;2.94;71.92;101108.34;5064246;28;20477;-69
2021/04/09 03:30:24;;;;;;;2.67;0.50;;;;;;;2.96;71.87;101108.91;5062067;28;20446;-70
2021/04/09 03:32:50;;;;;;;0.40;0.30;;;;;;;2.99;71.61;101108.44;5052825;28;20486;-70
2021/04/09 03:35:17;;;;;;;0.40;0.30;;;;;;;3.01;71.65;101107.16;5053399;28;20443;-70
2021/04/09 03:37:43;;;;;;;1.13;0.53;;;;;;;3.00;71.00;101110.88;5053335;28;20469;-70
2021/04/09 03:40:10;;;;;;;0.60;0.50;;;;;;;3.01;70.26;101107.16;5053173;28;20438;-69
2021/04/09 03:42:36;;;;;;;0.57;0.57;;;;;;;2.99;70.04;101108.44;5057894;28;20450;-70
2021/04/09 03:45:04;;;;;;;0.40;0.30;;;;;;;2.94;71.86;101103.78;5059892;28;20483;-70
2021/04/09 03:47:30;;;;;;;0.60;0.60;;;;;;;2.89;72.64;101095.69;5052998;28;21078;-69
2021/04/09 03:49:57;;;;;;;1.17;0.50;;;;;;;2.95;70.79;101101.94;5052990;28;20442;-71
2021/04/09 03:52:23;;;;;;;0.40;0.30;;;;;;;2.90;70.86;101094.63;5052079;28;20500;-71
2021/04/09 03:54:49;;;;;;;0.70;0.70;;;;;;;2.88;70.26;101098.56;5052694;28;20442;-73
2021/04/09 03:57:15;;;;;;;4.83;1.67;;;;;;;2.88;71.33;101091.38;5052400;28;20491;-70
2021/04/09 03:59:41;;;;;;;0.50;0.40;;;;;;;2.87;71.29;101095.09;5052021;28;20449;-69
2021/04/09 04:02:07;;;;;;;0.40;0.30;;;;;;;2.85;71.29;101086.50;5055657;28;20445;-69
2021/04/09 04:04:33;;;;;;;0.40;0.30;;;;;;;2.79;70.88;101084.78;5057127;28;20467;-69
2021/04/09 04:07:00;;;;;;;0.47;0.47;;;;;;;2.75;71.47;101079.09;5056803;28;20468;-68
2021/04/09 04:09:26;;;;;;;0.50;0.40;;;;;;;2.76;71.43;101074.53;5056698;28;20441;-69
2021/04/09 04:11:52;;;;;;;0.87;0.47;;;;;;;2.75;71.62;101071.06;5057091;28;20487;-69
2021/04/09 04:14:17;;;;;;;0.77;0.60;;;;;;;2.73;71.23;101078.50;5056476;28;20449;-68
2021/04/09 04:16:43;;;;;;;0.50;0.30;;;;;;;2.73;70.88;101078.50;5056219;28;20484;-69
2021/04/09 04:19:09;;;;;;;0.80;0.80;;;;;;;2.68;70.90;101069.56;5056841;28;20466;-69
2021/04/09 04:21:35;;;;;;;0.50;0.50;;;;;;;2.66;71.10;101075.16;5056782;28;21114;-69
2021/04/09 04:24:02;;;;;;;0.40;0.40;;;;;;;2.61;71.58;101068.88;5056486;28;20520;-69
2021/04/09 04:26:28;;;;;;;0.70;0.40;;;;;;;2.63;72.05;101070.28;5058145;28;20460;-69
2021/04/09 04:28:54;;;;;;;0.40;0.30;;;;;;;2.65;72.18;101073.50;5066189;28;20462;-69
2021/04/09 04:31:20;;;;;;;0.40;0.30;;;;;;;2.66;72.55;101071.69;5056700;28;20450;-69
2021/04/09 04:33:46;;;;;;;0.50;0.40;;;;;;;2.65;73.35;101075.38;5056574;28;20532;-69
2021/04/09 04:36:12;;;;;;;0.40;0.30;;;;;;;2.67;73.59;101068.75;5056718;28;20496;-69
2021/04/09 04:38:38;;;;;;;0.40;0.30;;;;;;;2.66;73.99;101071.69;5066990;28;20497;-69
2021/04/09 04:41:05;;;;;;;0.40;0.30;;;;;;;2.69;73.84;101071.19;5056430;28;20445;-69
2021/04/09 04:43:31;;;;;;;3.47;1.37;;;;;;;2.72;72.61;101068.03;5056308;28;20442;-69
2021/04/09 04:45:57;;;;;;;0.50;0.40;;;;;;;2.73;73.17;101065.13;5056204;28;20450;-70
2021/04/09 04:48:23;;;;;;;0.40;0.30;;;;;;;2.76;73.15;101056.63;5056385;28;20469;-69
2021/04/09 04:50:49;;;;;;;0.40;0.30;;;;;;;2.79;73.28;101058.03;5056216;28;20466;-70
2021/04/09 04:53:15;;;;;;;0.40;0.30;;;;;;;2.82;72.64;101052.19;5061623;28;20478;-68
2021/04/09 04:55:41;;;;;;;0.40;0.30;;;;;;;2.85;72.16;101053.59;5056167;28;20444;-68
2021/04/09 04:58:08;;;;;;;0.83;0.83;;;;;;;2.86;72.14;101049.84;5057771;28;20502;-68
2021/04/09 05:00:34;;;;;;;0.57;0.40;;;;;;;2.87;72.50;101038.91;5065039;28;20441;-68
2021/04/09 05:02:59;;;;;;;0.50;0.40;;;;;;;2.90;71.59;101046.47;5055925;28;20446;-69
2021/04/09 05:05:25;;;;;;;0.40;0.30;;;;;;;2.95;71.63;101043.06;5065994;28;20479;-69
2021/04/09 05:07:52;;;;;;;0.50;0.50;;;;;;;2.96;71.29;101039.34;5055952;28;20457;-68
2021/04/09 05:10:18;;;;;;;0.40;0.30;;;;;;;2.98;70.93;101039.94;5055782;28;20442;-69
2021/04/09 05:12:44;;;;;;;0.40;0.30;;;;;;;2.97;71.82;101038.31;5055197;28;20847;-68
2021/04/09 05:15:12;;;;;;;0.40;0.30;;;;;;;3.00;71.33;101030.59;5054783;28;20500;-68
2021/04/09 05:17:38;;;;;;;0.47;0.33;;;;;;;3.06;71.73;101022.69;5054708;28;20466;-67
2021/04/09 05:20:05;;;;;;;0.50;0.43;;;;;;;3.14;70.68;101025.75;5055589;28;20511;-70
2021/04/09 05:22:31;;;;;;;0.40;0.30;;;;;;;3.17;69.62;101021.78;5055559;28;20445;-69
2021/04/09 05:24:58;;;;;;;0.60;0.47;;;;;;;3.27;70.24;101030.81;5055369;28;20442;-73
2021/04/09 05:27:24;;;;;;;0.40;0.30;;;;;;;3.37;69.13;101026.69;5055384;28;20458;-71
2021/04/09 05:29:50;;;;;;;0.77;0.60;;;;;;;3.38;69.43;101022.97;5055916;28;20439;-71
2021/04/09 05:32:17;;;;;;;0.50;0.50;;;;;;;3.44;68.37;101020.13;5055524;28;20482;-70
2021/04/09 05:34:43;;;;;;;0.40;0.40;;;;;;;3.52;68.33;101026.94;5055336;28;20445;-70
2021/04/09 05:37:09;;;;;;;0.50;0.40;;;;;;;3.55;67.89;101018.44;5055429;28;20462;-73
2021/04/09 05:39:36;;;;;;;0.67;0.53;;;;;;;3.65;68.19;101023.94;5055484;28;20852;-73
2021/04/09 05:42:03;;;;;;;0.40;0.30;;;;;;;3.69;67.51;101022.41;5055395;28;20453;-72
2021/04/09 05:44:30;;;;;;;4.30;0.93;;;;;;;3.74;67.22;101014.44;5055021;28;20438;-70
2021/04/09 05:46:56;;;;;;;0.53;0.53;;;;;;;3.83;66.63;101019.38;5055151;28;20469;-69
2021/04/09 05:49:23;;;;;;;0.40;0.30;;;;;;;3.94;66.78;101013.09;5055324;28;20451;-71
2021/04/09 05:51:49;;;;;;;0.40;0.30;;;;;;;4.05;67.53;101014.88;5054724;28;20523;-71
2021/04/09 05:54:15;;;;;;;1.50;1.17;;;;;;;4.13;66.27;101010.97;5054269;28;20983;-71
2021/04/09 05:56:41;;;;;;;0.97;0.87;;;;;;;4.24;65.22;101013.53;5054675;28;20822;-71
2021/04/09 05:59:07;;;;;;;0.40;0.30;;;;;;;4.27;65.25;101007.69;5055210;28;20453;-70
2021/04/09 06:01:33;;;;;;;0.80;0.67;;;;;;;4.33;64.20;101003.19;5068540;28;20461;-70
2021/04/09 06:03:59;;;;;;;1.37;1.23;;;;;;;4.41;64.27;101005.44;5074699;28;20441;-71
2021/04/09 06:06:25;;;;;;;0.70;0.70;;;;;;;4.43;64.15;101008.69;5075104;28;20449;-71
2021/04/09 06:08:51;;;;;;;1.47;1.37;;;;;;;4.51;64.44;101008.22;5074746;28;20457;-71
2021/04/09 06:11:17;;;;;;;1.53;0.50;;;;;;;4.58;63.65;101017.97;5074878;28;20981;-71
2021/04/09 06:13:43;;;;;;;1.00;0.63;;;;;;;4.62;63.44;101006.50;5074734;28;20899;-71
2021/04/09 06:16:09;;;;;;;0.40;0.30;;;;;;;4.68;63.34;101002.81;5073792;28;20950;-71
2021/04/09 06:18:35;;;;;;;0.83;0.50;;;;;;;4.76;63.00;101002.34;5074666;28;20521;-71
2021/04/09 06:21:02;;;;;;;1.50;1.40;;;;;;;4.84;63.25;101003.78;5073917;28;20499;-71
2021/04/09 06:23:28;;;;;;;0.40;0.30;;;;;;;4.88;62.19;100999.53;5073890;28;20440;-71
2021/04/09 06:25:54;;;;;;;0.50;0.40;;;;;;;4.93;61.96;101004.97;5073550;28;20449;-72
2021/04/09 06:28:20;;;;;;;0.50;0.37;;;;;;;4.92;61.72;100991.81;5073808;28;20492;-71
2021/04/09 06:30:46;;;;;;;2.03;1.90;;;;;;;4.87;62.00;101018.56;5074360;28;20491;-71
2021/04/09 06:33:12;;;;;;;2.83;1.17;;;;;;;4.93;62.26;101006.84;5073969;28;20573;-71
2021/04/09 06:35:38;;;;;;;0.80;0.60;;;;;;;5.00;61.72;101012.78;5073959;28;20448;-71
2021/04/09 06:38:04;;;;;;;0.87;0.73;;;;;;;5.09;61.64;101002.41;5087598;28;20462;-71
2021/04/09 06:40:33;;;;;;;1.67;0.83;;;;;;;5.26;61.36;100997.75;5074216;28;20491;-71
2021/04/09 06:43:00;;;;;;;0.70;0.70;;;;;;;5.41;60.96;101000.56;5074399;28;20444;-71
2021/04/09 06:45:27;;;;;;;1.33;0.77;;;;;;;5.54;60.91;101002.03;5073919;28;20433;-71
2021/04/09 06:47:53;;;;;;;1.30;1.23;;;;;;;5.63;60.54;101005.84;5074310;28;20453;-71
2021/04/09 06:50:20;;;;;;;1.03;0.60;;;;;;;5.67;60.06;100996.22;5073818;28;20448;-71
2021/04/09 06:52:47;;;;;;;3.03;0.50;;;;;;;5.77;59.82;101000.84;5073615;28;20485;-71
2021/04/09 06:55:14;;;;;;;0.40;0.30;;;;;;;5.81;59.69;101004.63;5073704;28;20472;-71
2021/04/09 06:57:42;;;;;;;0.50;0.50;;;;;;;5.87;59.14;101000.09;5093066;22;20513;-66
2021/04/09 07:00:11;;;;;;;0.40;0.40;;;;;;;5.96;59.85;101001.25;5043660;28;20541;-65
2021/04/09 07:02:37;;;;;;;1.63;1.27;;;;;;;5.99;58.84;100995.38;5052533;28;20458;-64
2021/04/09 07:05:04;;;;;;;0.83;0.80;;;;;;;6.10;59.03;100994.34;5051787;28;20458;-64
2021/04/09 07:07:30;;;;;;;0.50;0.47;;;;;;;6.18;58.66;100987.66;5045760;28;20504;-65
2021/04/09 07:09:56;;;;;;;0.43;0.40;;;;;;;6.24;58.76;100989.28;5033610;28;20451;-63
2021/04/09 07:12:24;;;;;;;0.50;0.40;;;;;;;6.23;58.16;100980.41;5033316;28;21015;-65
2021/04/09 07:14:53;;;;;;;0.73;0.50;;;;;;;6.24;58.46;100976.69;5033372;28;20956;-65
2021/04/09 07:17:26;;;;;;;46.97;1.17;;;;;;;6.26;58.03;100979.91;5032136;28;20451;-66
2021/04/09 07:20:07;;;;;;;0.50;0.50;;;;;;;6.37;57.47;100974.56;5033495;28;20443;-68
2021/04/09 07:22:33;;;;;;;1.33;1.03;;;;;;;6.45;57.22;100966.78;5033403;28;20428;-66
2021/04/09 07:25:05;;;;;;;0.40;0.40;;;;;;;6.55;57.88;100966.00;5033408;28;20513;-66
2021/04/09 07:27:31;;;;;;;0.47;0.40;;;;;;;6.65;57.28;100976.81;5033115;28;20440;-66
2021/04/09 07:29:57;;;;;;;2.00;0.83;;;;;;;6.70;56.68;100957.19;5033163;28;20455;-68
2021/04/09 07:32:35;;;;;;;0.50;0.40;;;;;;;6.78;56.95;100964.75;5033437;28;20482;-68
2021/04/09 07:35:04;;;;;;;1.03;0.40;;;;;;;6.86;56.21;100971.47;5033505;28;20481;-67
2021/04/09 07:37:32;;;;;;;0.50;0.50;;;;;;;6.92;56.83;100967.72;5033486;28;20438;-67
2021/04/09 07:40:03;;;;;;;3.67;1.43;;;;;;;7.06;55.90;100963.44;5033313;28;20442;-67
2021/04/09 07:42:32;;;;;;;1.13;0.60;;;;;;;7.19;56.03;100970.97;5033419;28;20423;-69
2021/04/09 07:45:01;;;;;;;3.07;1.43;;;;;;;7.36;55.56;100975.31;5033313;28;20443;-67
2021/04/09 07:47:27;;;;;;;0.77;0.60;;;;;;;7.55;55.00;100969.09;5033147;28;20820;-67
2021/04/09 07:50:04;;;;;;;1.50;1.40;;;;;;;7.65;53.96;100968.25;5033126;28;20793;-67
2021/04/09 07:52:45;;;;;;;0.50;0.40;;;;;;;7.71;53.27;100961.78;5033249;28;20471;-67
2021/04/09 07:55:17;;;;;;;9.83;1.13;;;;;;;7.77;53.73;100960.69;5033074;28;20533;-67
2021/04/09 07:57:43;;;;;;;0.93;0.77;;;;;;;7.76;53.76;100966.38;5033121;28;20468;-66
2021/04/09 08:00:22;;;;;;;0.80;0.63;;;;;;;7.83;53.85;100959.63;5033433;28;20431;-68
2021/04/09 08:02:49;;;;;;;1.23;0.80;;;;;;;7.89;53.21;100960.41;5032555;28;20430;-66
2021/04/09 08:05:17;;;;;;;0.40;0.37;;;;;;;7.97;53.88;100964.41;5032815;28;20447;-68
2021/04/09 08:07:43;;;;;;;1.53;0.60;;;;;;;7.99;54.06;100957.66;5032182;28;20824;-66
2021/04/09 08:10:12;;;;;;;0.50;0.40;;;;;;;8.03;53.60;100957.94;5033002;28;20466;-67
2021/04/09 08:12:39;;;;;;;0.50;0.30;;;;;;;8.11;52.81;100946.59;5032915;28;20479;-67
2021/04/09 08:15:13;;;;;;;0.63;0.53;;;;;;;8.17;52.71;100947.38;5032991;28;20443;-67
2021/04/09 08:17:40;;;;;;;0.40;0.40;;;;;;;8.26;52.61;100941.13;5032330;28;20513;-67
2021/04/09 08:20:10;;;;;;;0.40;0.30;;;;;;;8.36;53.16;100942.94;5032749;28;20577;-67
2021/04/09 08:22:37;;;;;;;0.90;0.90;;;;;;;8.45;53.54;100938.63;5032144;28;20427;-66
2021/04/09 08:25:04;;;;;;;2.67;2.17;;;;;;;8.58;52.26;100929.91;5032019;28;20454;-67
2021/04/09 08:27:30;;;;;;;0.77;0.40;;;;;;;8.78;52.69;100941.69;5032533;28;20496;-64
2021/04/09 08:29:56;;;;;;;0.83;0.57;;;;;;;8.87;51.38;100931.91;5032927;28;20458;-63
2021/04/09 08:32:23;;;;;;;0.80;0.73;;;;;;;8.90;51.91;100928.66;5032917;28;20565;-66
2021/04/09 08:34:50;;;;;;;1.67;0.90;;;;;;;9.00;51.86;100930.47;5032114;28;20553;-64
2021/04/09 08:37:16;;;;;;;0.50;0.50;;;;;;;9.16;51.25;100921.13;5032826;28;20455;-64
2021/04/09 08:39:43;;;;;;;6.23;1.77;;;;;;;9.32;51.44;100925.31;5032859;28;20469;-65
2021/04/09 08:42:09;;;;;;;0.80;0.80;;;;;;;9.39;50.96;100919.59;5032684;28;20450;-66
2021/04/09 08:44:36;;;;;;;1.03;0.93;;;;;;;9.51;50.76;100921.91;5032529;28;20446;-66
2021/04/09 08:47:02;;;;;;;2.00;0.50;;;;;;;9.60;49.40;100920.19;5034304;28;20443;-66
2021/04/09 08:49:29;;;;;;;0.50;0.40;;;;;;;9.65;50.39;100914.75;5055316;28;20462;-66
2021/04/09 08:52:00;;;;;;;0.83;0.57;;;;;;;9.74;51.10;100921.13;5055698;28;20480;-65
2021/04/09 08:54:29;;;;;;;0.77;0.77;;;;;;;9.92;50.13;100918.78;5056068;28;20474;-66
2021/04/09 08:56:56;;;;;;;3.27;1.03;;;;;;;9.94;49.64;100914.69;5051012;28;20831;-66
2021/04/09 08:59:44;;;;;;;2.23;1.57;;;;;;;9.86;49.72;100912.59;5053460;28;20489;-66
2021/04/09 09:02:15;;;;;;;0.83;0.77;;;;;;;9.81;49.58;100904.56;5049350;28;20964;-65
2021/04/09 09:04:57;;;;;;;1.40;1.30;;;;;;;9.77;49.77;100906.22;5055650;28;20444;-66
2021/04/09 09:08:05;;;;;;;0.80;0.57;;;;;;;9.89;49.69;100912.03;5055960;28;20431;-65
2021/04/09 09:10:56;;;;;;;1.80;0.50;;;;;;;10.02;50.22;100910.53;5054140;28;20822;-66
2021/04/09 09:13:26;;;;;;;1.70;1.60;;;;;;;10.14;50.73;100910.09;5055101;28;20524;-66
2021/04/09 09:16:10;;;;;;;4.00;1.90;;;;;;;10.23;49.94;100908.41;5054211;28;20980;-66
2021/04/09 09:18:57;;;;;;;3.10;1.50;;;;;;;10.37;49.46;100903.09;5053083;28;20478;-66
2021/04/09 09:21:41;;;;;;;1.17;0.80;;;;;;;10.46;49.25;100898.63;5047836;28;20452;-66
2021/04/09 09:24:19;;;;;;;0.70;0.63;;;;;;;10.62;48.73;100910.84;5055686;28;20804;-67
2021/04/09 09:26:46;;;;;;;1.17;0.70;;;;;;;10.79;49.19;100900.28;5055508;28;20446;-66
2021/04/09 09:29:16;;;;;;;2.17;1.20;;;;;;;11.12;48.79;100889.50;5055346;28;20466;-67
2021/04/09 09:31:44;;;;;;;1.23;1.10;;;;;;;11.28;47.09;100895.44;5052436;28;20447;-66
2021/04/09 09:34:46;;;;;;;0.60;0.60;;;;;;;11.32;46.68;100894.53;5044095;28;20498;-66
2021/04/09 09:37:15;;;;;;;0.70;0.67;;;;;;;11.39;46.29;100888.75;5035487;28;20427;-66
2021/04/09 09:39:43;;;;;;;1.50;1.40;;;;;;;11.44;46.27;100885.94;5034918;28;20964;-66
2021/04/09 09:42:13;;;;;;;1.53;1.20;;;;;;;11.43;46.46;100888.97;5035444;28;20816;-64
2021/04/09 09:44:44;;;;;;;1.33;1.23;;;;;;;11.52;46.26;100896.09;5034302;28;20875;-65
2021/04/09 09:47:21;;;;;;;1.40;1.10;;;;;;;11.50;46.06;100878.50;5035339;28;20443;-65
2021/04/09 09:50:19;;;;;;;1.33;0.70;;;;;;;11.45;46.07;100870.47;5034975;28;20443;-64
2021/04/09 09:52:47;;;;;;;2.93;1.73;;;;;;;11.58;46.32;100869.66;5034899;28;20544;-65
2021/04/09 09:55:15;;;;;;;2.13;0.73;;;;;;;11.80;47.27;100863.53;5035014;28;20440;-66
2021/04/09 09:57:44;;;;;;;1.60;1.20;;;;;;;12.02;46.94;100862.84;5034697;28;20579;-64
2021/04/09 10:00:12;;;;;;;1.30;1.20;;;;;;;12.16;45.40;100857.41;5033581;28;20801;-65
2021/04/09 10:02:38;;;;;;;0.50;0.47;;;;;;;12.22;45.99;100858.88;5033927;28;20964;-66
2021/04/09 10:05:06;;;;;;;1.50;0.80;;;;;;;12.27;45.39;100864.25;5036632;28;20951;-64
2021/04/09 10:07:31;;;;;;;1.50;1.00;;;;;;;12.31;45.86;100865.22;5047633;28;20462;-66
2021/04/09 10:09:57;;;;;;;0.70;0.60;;;;;;;12.16;44.71;100862.84;5052604;28;20454;-65
2021/04/09 10:12:23;;;;;;;1.00;0.80;;;;;;;12.20;45.41;100864.63;5053356;28;20449;-66
2021/04/09 10:14:53;;;;;;;2.83;1.17;;;;;;;12.22;45.54;100873.31;5053523;28;20468;-65
2021/04/09 10:17:19;;;;;;;1.03;0.93;;;;;;;12.33;45.55;100854.84;5054678;28;20442;-66
2021/04/09 10:20:03;;;;;;;4.13;2.23;;;;;;;12.45;45.57;100852.41;5037299;28;20451;-67
2021/04/09 10:22:30;;;;;;;1.87;1.77;;;;;;;12.37;44.92;100859.38;5032194;28;20431;-66
2021/04/09 10:24:56;;;;;;;1.57;1.27;;;;;;;12.36;45.23;100846.91;5034100;28;20852;-66
2021/04/09 10:27:22;;;;;;;3.13;1.93;;;;;;;12.30;44.86;100842.66;5034226;28;20497;-65
2021/04/09 10:29:48;;;;;;;5.03;2.10;;;;;;;12.18;45.70;100842.44;5051259;28;20481;-65
2021/04/09 10:32:17;;;;;;;3.40;0.70;;;;;;;12.04;45.60;100838.91;5053183;28;20783;-67
2021/04/09 10:34:46;;;;;;;0.70;0.70;;;;;;;12.14;46.58;100835.19;5053669;28;21007;-65
2021/04/09 10:37:20;;;;;;;1.50;0.53;;;;;;;12.20;46.04;100831.25;5054109;28;20445;-65
2021/04/09 10:39:46;;;;;;;0.93;0.73;;;;;;;12.39;46.04;100842.75;5053163;28;20430;-67
2021/04/09 10:42:12;;;;;;;1.27;1.03;;;;;;;12.43;45.20;100840.22;5053111;28;20446;-65
2021/04/09 10:44:38;;;;;;;1.87;1.23;;;;;;;12.30;46.32;100826.38;5053845;28;20448;-64
2021/04/09 10:47:05;;;;;;;1.13;1.03;;;;;;;12.64;46.10;100825.06;5053765;28;20442;-63
2021/04/09 10:49:33;;;;;;;1.97;1.40;;;;;;;12.84;46.19;100824.56;5053367;28;20496;-66
2021/04/09 10:52:04;;;;;;;0.60;0.60;;;;;;;12.81;44.77;100824.38;5038315;28;20451;-66
2021/04/09 10:54:32;;;;;;;1.33;0.87;;;;;;;12.84;45.32;100812.91;5032866;28;20471;-66
2021/04/09 10:56:59;;;;;;;1.00;0.90;;;;;;;13.05;45.11;100815.88;5036028;28;20447;-64
2021/04/09 10:59:27;;;;;;;0.60;0.60;;;;;;;13.32;44.30;100818.44;5033532;28;21069;-65
2021/04/09 11:01:54;;;;;;;1.17;1.00;;;;;;;13.51;43.84;100823.66;5033693;28;20443;-66
2021/04/09 11:04:21;;;;;;;0.63;0.53;;;;;;;13.60;43.03;100820.97;5033777;28;20442;-67
2021/04/09 11:06:52;;;;;;;2.53;1.33;;;;;;;13.44;43.41;100811.59;5033368;28;20438;-68
2021/04/09 11:09:19;;;;;;;0.83;0.70;;;;;;;13.45;44.26;100810.47;5033243;28;20980;-69
2021/04/09 11:11:45;;;;;;;3.43;1.83;;;;;;;13.56;44.17;100795.50;5033412;28;20443;-68
2021/04/09 11:14:14;;;;;;;1.50;1.07;;;;;;;13.77;44.25;100801.97;5033666;28;21070;-68
2021/04/09 11:16:54;;;;;;;2.97;1.23;;;;;;;14.12;43.38;100812.88;5033390;28;20956;-69
2021/04/09 11:19:22;;;;;;;0.70;0.63;;;;;;;14.43;42.22;100798.31;5033533;28;20470;-69
2021/04/09 11:21:49;;;;;;;0.80;0.63;;;;;;;14.53;43.28;100803.47;5033662;28;20517;-69
2021/04/09 11:24:22;;;;;;;1.57;0.90;;;;;;;14.41;41.47;100795.91;5033552;28;20439;-69
2021/04/09 11:26:48;;;;;;;1.10;0.90;;;;;;;13.95;43.09;100793.81;5033493;28;20423;-69
2021/04/09 11:29:20;;;;;;;0.80;0.70;;;;;;;14.13;42.04;100792.72;5033472;28;20470;-69
2021/04/09 11:31:47;;;;;;;0.60;0.50;;;;;;;14.78;42.08;100796.38;5033580;28;20423;-68
2021/04/09 11:34:12;;;;;;;2.80;1.30;;;;;;;14.98;40.66;100794.91;5033347;28;20483;-70
2021/04/09 11:36:45;;;;;;;0.70;0.67;;;;;;;14.80;40.52;100797.66;5033318;28;20443;-69
2021/04/09 11:39:14;;;;;;;2.13;1.20;;;;;;;14.25;41.86;100792.06;5033013;28;20470;-69